Caio Braga

Olheiro - Grêmio
25 Nov 2027
Quinta-feira
Processo

Personalidade

Adaptabilidade (5) Ambição (6) Controvérsia (4) Lealdade (19) Pressão (12) Profissionalismo (18) Espírito Esportivo (12) Temperamento (10)

Perfil

Estilo de Treinamento Democrático
Licença Continental C
Determinação 9
Gestão de Pessoas 6
Motivação 9
Disciplina 6
Satisfação no Trabalho
100%
Fadiga
0%
Função Olheiro
Salário 104.4K p/s
Contrato 14.03.2030

Desempenho

Comportamento Bom
Eficácia do Treinamento
49%
Desenvolvimento do Jogador
60%
Prevenção de Lesões
55%
Implementação Tática
35%

Eventos Recentes

Avaliou um jogador agora
Participou de uma reunião de recrutamento agora
Recomendou um alvo de transferência agora
Participou de uma reunião de recrutamento agora
Participou de uma reunião de recrutamento agora
Participou de uma reunião de recrutamento agora
Avaliou um jogador 7d atrás
Avaliou um jogador 7d atrás

Monitorando agora

281
Jogador Clube Status Habilidade Confiança Observado Última observação Último voto
Erick Pulga Bahia Ativo 135 / 127 40% 6 24.11.2027 -
Pedro de la Vega FC Dallas Ativo 137 / 132 40% 2 24.11.2027 -
Khellven Palmeiras Ativo 137 / 127 40% 3 24.11.2027 -
Vitinho Botafogo Ativo 135 / 132 40% 5 22.11.2027 -
Tiago Palacios Estudiantes Ativo 132 / 132 40% 1 22.11.2027 -
Benjamín Rollheiser Santos Ativo 134 / 137 40% 4 21.11.2027 -
Brais Méndez Columbus Crew Ativo 150 / 150 40% 7 20.11.2027 -
Vinicinho Bragantino Ativo 129 / 127 40% 5 20.11.2027 -
Myles Lewis-Skelly Birmingham Ativo 153 / 154 40% 4 20.11.2027 -
Allan Saint-Maximin Charlotte Football Club Ativo 147 / 145 40% 8 20.11.2027 -
Marvelous Freedom Ikorodu City Ativo 93 / 93 40% 3 20.11.2027 -
Maurício Palmeiras Ativo 140 / 132 40% 3 17.11.2027 -
Ramón Sosa Palmeiras Ativo 139 / 139 40% 4 17.11.2027 -
Bernardo Lima Porto Ativo 106 / 114 40% 1 16.11.2027 -
Martim Ferreira Benfica Ativo 106 / 117 40% 1 16.11.2027 -
Henry Mosquera Bragantino Ativo 134 / 132 40% 7 15.11.2027 -
Ferreirinha Sport Recife Ativo 132 / 129 40% 6 15.11.2027 Observar
Lucas Assadi AIK Ativo 135 / 133 40% 4 13.11.2027 -
Iván Angulo Orlando City Ativo 134 / 128 40% 2 13.11.2027 -
Marco Pašalić Orlando City Ativo 130 / 129 40% 4 12.11.2027 -
Gérson Cruzeiro Ativo 139 / 145 40% 1 12.11.2027 -
Samuel Lino Flamengo Ativo 145 / 140 40% 5 11.11.2027 -
Riqui Puig LA Galaxy Ativo 139 / 138 40% 2 11.11.2027 -
Mads Bomholt Stabaek Ativo 108 / 117 40% 2 11.11.2027 -
João Teixeira Porto Ativo 115 / 125 40% 2 11.11.2027 -
Gonçalo Oliveira Benfica Ativo 114 / 124 40% 1 11.11.2027 -
Eduardo Felicíssimo Sporting CP Ativo 117 / 134 40% 2 08.11.2027 -
Caleb Yirenkyi Coventry City Ativo 143 / 152 40% 2 07.11.2027 -
Luis Otávio Colorado Rapids Ativo 109 / 117 40% 1 07.11.2027 -
Jhon Arias Palmeiras Ativo 141 / 137 40% 6 06.11.2027 -
Luca Langoni Colorado Rapids Ativo 133 / 136 40% 6 06.11.2027 -
Rodrigo Garro Corinthians Ativo 139 / 141 40% 6 05.11.2027 -
Jack Harrison New England Revolution Ativo 130 / 125 40% 5 05.11.2027 -
Nuno Moreira Vasco da Gama Ativo 132 / 132 40% 3 02.11.2027 -
André Luiz New York City Ativo 129 / 132 40% 4 02.11.2027 -
Renan Lodi Atlético Mineiro Ativo 137 / 140 40% 5 31.10.2027 -
Håkon Evjen Molde Ativo 133 / 131 40% 1 31.10.2027 -
Duvan Rangel La Equidad Ativo 136 / 135 40% 5 29.10.2027 -
Artur Botafogo Ativo 134 / 127 40% 5 28.10.2027 -
Jorge Carrascal Flamengo Ativo 138 / 130 40% 2 28.10.2027 -
Miguel Figueiredo Cesena Ativo 118 / 127 40% 3 28.10.2027 -
Nicolas Sport Recife Ativo 106 / 107 40% 1 28.10.2027 -
Hervin Goyes Deportivo Pasto Ativo 107 / 112 40% 1 28.10.2027 -
Andrés Gómez Vasco da Gama Ativo 138 / 138 40% 5 25.10.2027 -
Josh King Chelsea Ativo 143 / 152 40% 1 23.10.2027 -
David Da Costa Portland Timbers Ativo 133 / 133 40% 4 22.10.2027 -
Ignacio Fernández Boston River Ativo 91 / 99 40% 2 22.10.2027 -
Daniel Banjaqui Benfica Ativo 120 / 127 40% 1 22.10.2027 -
Juan Morán Godoy Cruz Ativo 108 / 109 40% 1 21.10.2027 -
Kauã Moraes Cruzeiro Ativo 127 / 132 40% 3 12.10.2027 -
Bahia Criciuma Ativo 111 / 124 40% 1 12.10.2027 -
Alejandro Almaraz Nueva Chicago Ativo 108 / 115 40% 1 11.10.2027 -
Joel Ezra Enyimba Ativo 91 / 97 40% 1 11.10.2027 -
Mikkel Hope Haugesund Ativo 99 / 112 40% 2 10.10.2027 -
Ayden Heaven Luton Town Ativo 147 / 145 40% 1 10.10.2027 -
Martín Ojeda Orlando City Ativo 139 / 128 40% 3 09.10.2027 -
Pavel Bucha FC Cincinnati Ativo 130 / 133 40% 2 05.10.2027 -
Telasco Segovia Inter Miami CF Ativo 139 / 132 40% 2 05.10.2027 -
Archie Gray Derby County Ativo 147 / 155 40% 1 04.10.2027 -
Paxten Aaronson Colorado Rapids Ativo 140 / 145 40% 4 02.10.2027 -
Brooke Norton-Cuffy Inter Miami CF Ativo 135 / 137 40% 2 01.10.2027 -
Alan Lescano Argentinos Juniors Ativo 134 / 130 40% 1 12.09.2027 -
Gabriel Pirani San Diego Football Club Ativo 131 / 130 40% 1 07.09.2027 -
Álvaro Barreal Santos Rejeitado 136 / 137 83% 2 05.09.2027 Rejeitar
Kai Wagner Philadelphia Union Ativo 123 / 132 40% 2 28.08.2027 -
Sergio Reguilón Inter Miami CF Ativo 135 / 137 40% 2 28.08.2027 -
Tomás Escalante Plaza Colonia Ativo 126 / 126 40% 1 28.08.2027 -
Aaron Herrera Charlotte Football Club Ativo 130 / 127 40% 1 27.08.2027 -
Willyan Rocha Al Jazira Ativo 133 / 133 40% 1 27.08.2027 -
Leonardo Borja La Equidad Ativo 146 / 146 40% 1 27.08.2027 -
Nahuel Herrera Penarol Ativo 128 / 126 40% 1 26.08.2027 -
Naves Palmeiras Ativo 135 / 137 40% 1 26.08.2027 -
Arthur Santos Ativo 139 / 139 40% 1 25.08.2027 -
Mateo Mendoza Godoy Cruz Ativo 128 / 129 40% 1 25.08.2027 -
Steven Alzate Atlanta United FC Ativo 130 / 131 40% 1 25.08.2027 -
Sergi Palencia Los Angeles Football Club Ativo 130 / 123 40% 1 23.08.2027 -
Mohamed Camara Maccabi Tel Aviv Ativo 145 / 140 40% 1 23.08.2027 -
Marcos Antonio Sport Recife Ativo 143 / 143 40% 1 22.08.2027 -
Marcelo Saracchi Houston Dynamo Ativo 125 / 120 40% 1 22.08.2027 -
Nadir Zortea Bologna Ativo 141 / 141 40% 3 20.08.2027 -
Alessandro Bastoni Inter Ativo 166 / 165 40% 2 20.08.2027 -
Tommaso Pobega Bologna Ativo 146 / 146 40% 1 20.08.2027 -
Nuno Tavares Lazio Ativo 155 / 152 40% 3 19.08.2027 -
Josh Doig Sassuolo Ativo 144 / 147 40% 1 19.08.2027 -
Idrissa Touré Monza Ativo 138 / 142 40% 1 19.08.2027 -
Fikayo Tomori AC Milan Ativo 155 / 151 40% 2 17.08.2027 -
Emanuele Valeri Parma Ativo 142 / 140 40% 2 17.08.2027 -
Benedict Hollerbach Mainz 05 Ativo 141 / 139 40% 2 17.08.2027 -
Andrea Colpani Monza Ativo 144 / 144 40% 2 17.08.2027 -
Gaetano Castrovilli Cesena Ativo 137 / 139 40% 1 17.08.2027 -
Samuele Angori Pisa Ativo 136 / 135 40% 1 16.08.2027 -
Alessandro Buongiorno Sassuolo Ativo 162 / 156 40% 1 16.08.2027 -
Daniel Tonoli Modena Ativo 132 / 133 40% 1 16.08.2027 -
Alessandro Sersanti Modena Ativo 128 / 134 40% 1 13.08.2027 -
Franck Kessié Atalanta Ativo 152 / 147 40% 1 13.08.2027 -
Diego Moreira AC Milan Ativo 147 / 147 40% 1 12.08.2027 -
Lewis Ferguson Bologna Ativo 148 / 151 40% 1 12.08.2027 -
Assane Diao Lazio Ativo 153 / 158 40% 1 11.08.2027 -
Manu Koné AS Roma Ativo 167 / 169 40% 3 10.08.2027 -
Guille Rosas Gijón Ativo 142 / 144 40% 3 10.08.2027 -
Donyell Malen AS Roma Ativo 155 / 151 40% 1 10.08.2027 -
Carlos Augusto Inter Ativo 153 / 158 40% 1 10.08.2027 -
Welington Southampton Ativo 134 / 139 40% 10 08.08.2027 -
Hector Ramirez Newcastle United Ativo 154 / 157 40% 2 08.08.2027 -
Jack Rudoni Coventry City Ativo 141 / 134 40% 6 08.08.2027 -
Callum O'Hare Sheffield United Ativo 137 / 134 40% 4 08.08.2027 -
Mikkel Damsgaard Brentford Ativo 148 / 150 40% 1 08.08.2027 -
Borja Sainz Fiorentina Ativo 155 / 144 40% 2 06.08.2027 -
Callum Hudson-Odoi Nottingham Forest Ativo 154 / 155 40% 1 06.08.2027 -
Azor Matusiwa Ipswich Town Ativo 141 / 139 40% 1 05.08.2027 -
Adrià Altimira Deportivo La Coruña Ativo 136 / 132 40% 1 04.08.2027 -
Kiernan Dewsbury-Hall Everton Ativo 153 / 152 40% 3 03.08.2027 -
Léo Scienza Southampton Ativo 142 / 140 40% 2 03.08.2027 -
Giacomo Raspadori Atalanta Ativo 154 / 152 40% 1 03.08.2027 -
Tom Fellows Southampton Ativo 137 / 135 40% 5 30.07.2027 -
Xavi Simons Tottenham Ativo 161 / 165 40% 2 30.07.2027 -
Dango Ouattara Brentford Ativo 151 / 145 40% 3 30.07.2027 -
Nicolas Jackson Aston Villa Ativo 151 / 145 40% 1 28.07.2027 -
Georginio Rutter Brighton Ativo 152 / 146 40% 1 28.07.2027 -
Harry Wilson Leeds United Ativo 145 / 152 40% 1 27.07.2027 -
Jacob Ramsey Newcastle United Ativo 156 / 147 40% 1 27.07.2027 -
Morgan Whittaker Middlesbrough Ativo 137 / 131 40% 3 26.07.2027 -
Carlos Vicente Birmingham Ativo 147 / 147 40% 1 26.07.2027 -
Joe Gelhardt Hull City Ativo 136 / 138 40% 1 24.07.2027 -
Finn Azaz Southampton Ativo 133 / 137 40% 2 23.07.2027 -
Mohamed-Ali Cho Hull City Ativo 142 / 142 40% 1 23.07.2027 -
Riley McGree Middlesbrough Ativo 136 / 136 40% 2 19.07.2027 -
Lucas Moura Sport Recife Ativo 134 / 134 86% 1 03.06.2027 Aprovar
Curtis Jones Inter Ativo 155 / 151 40% 8 31.05.2027 -
Ethan Galbraith Swansea City Ativo 134 / 130 40% 3 30.05.2027 -
Óscar Mingueza Crystal Palace Ativo 152 / 152 40% 2 30.05.2027 -
Derry Murkin Derby County Ativo 126 / 122 40% 1 30.05.2027 -
Marco Asensio Fenerbahce Ativo 160 / 155 40% 2 29.05.2027 Mais informações
James Trafford Leeds United Ativo 142 / 149 40% 4 28.05.2027 Observar
Jacob Widell Zetterström Derby County Ativo 134 / 128 40% 1 28.05.2027 -
Jamie Cumming Oxford United Ativo 129 / 126 40% 1 28.05.2027 -
Dara O'Shea Ipswich Town Ativo 140 / 134 40% 3 26.05.2027 -
Nico González Newcastle United Ativo 162 / 166 40% 4 25.05.2027 -
Adrien Truffert Bournemouth Ativo 154 / 145 40% 2 25.05.2027 -
Milan van Ewijk Mansfield Town Ativo 127 / 125 40% 3 24.05.2027 -
Rob Atkinson Bristol City Ativo 122 / 126 40% 1 24.05.2027 -
Callum Doyle Wrexham Ativo 133 / 132 40% 3 23.05.2027 -
Shea Charles Southampton Ativo 139 / 138 40% 2 22.05.2027 -
Sven Botman Newcastle United Ativo 160 / 160 40% 2 22.05.2027 -
Mads Hermansen West Ham United Ativo 143 / 139 40% 3 20.05.2027 -
Michael Cooper Sheffield United Perdido 132 / 129 40% 2 20.05.2027 -
Saša Lukić Ipswich Town Ativo 141 / 140 40% 3 18.05.2027 -
Arijanet Murić Sassuolo Ativo 138 / 147 40% 3 17.05.2027 -
Dean Henderson Crystal Palace Ativo 152 / 150 40% 2 17.05.2027 -
Lorenzo Palmisani Frosinone Ativo 126 / 129 40% 1 15.05.2027 -
Anatolii Trubin Juventus Ativo 156 / 159 40% 1 15.05.2027 -
Alexander Nübel Besiktas Perdido 149 / 144 40% 1 14.05.2027 -
Radek Vítek Middlesbrough Ativo 141 / 145 40% 2 12.05.2027 Mais informações
Balázs Tóth Blackburn Rovers Ativo 132 / 123 40% 2 12.05.2027 -
Mats Wieffer Brighton Ativo 148 / 144 40% 1 12.05.2027 -
Adam Wharton Crystal Palace Ativo 154 / 154 40% 2 11.05.2027 -
Nordi Mukiele Sunderland Ativo 142 / 144 40% 1 11.05.2027 -
Kostantis Tzolakis Hull City Ativo 147 / 143 40% 5 09.05.2027 -
Max O'Leary West Bromwich Albion Ativo 133 / 131 40% 2 09.05.2027 -
Alex Meret Napoli Ativo 157 / 160 40% 2 08.05.2027 -
Ousmane Diomande Nottingham Forest Ativo 153 / 150 40% 1 08.05.2027 -
Michele Cerofolini Bari Perdido 129 / 128 40% 2 06.05.2027 -
Bilal Bayazıt Kayserispor Ativo 126 / 128 40% 1 06.05.2027 -
Caoimhin Kelleher Brentford Ativo 151 / 155 40% 3 05.05.2027 -
Tyler Adams Bournemouth Ativo 154 / 150 40% 1 04.05.2027 -
Amadou Onana Aston Villa Ativo 159 / 158 40% 1 04.05.2027 -
Boubacar Kamara Aston Villa Ativo 166 / 164 40% 1 04.05.2027 -
Anton Stach Leeds United Ativo 146 / 144 40% 1 02.05.2027 -
Daniel Iversen Preston Ativo 129 / 127 40% 1 29.04.2027 -
Kenny Tete Fulham Ativo 142 / 142 40% 2 28.04.2027 -
Jan Paul van Hecke Tottenham Ativo 162 / 156 40% 2 28.04.2027 -
Xaver Schlager Nottingham Forest Ativo 154 / 150 40% 1 28.04.2027 -
Juan Soriano Académico de Viseu Ativo 132 / 130 40% 2 25.04.2027 -
Bright Arrey-Mbi Braga Ativo 138 / 139 40% 10 24.04.2027 -
Iván Fresneda Sporting CP Ativo 143 / 142 40% 16 24.04.2027 -
Cezary Miszta Rio Ave Ativo 133 / 130 40% 3 24.04.2027 -
Nicolas Schmid Portsmouth Ativo 126 / 123 40% 1 24.04.2027 -
Patrick Sequeira Casa Pia Ativo 128 / 128 40% 3 19.04.2027 -
Pau Víctor AVS Ativo 135 / 135 40% 9 18.04.2027 -
Tomás Araújo Benfica Ativo 149 / 144 40% 17 17.04.2027 -
Ryan Sessegnon Fulham Ativo 149 / 151 40% 1 17.04.2027 -
Ignacio de Arruabarrena Arouca Ativo 125 / 132 40% 1 15.04.2027 -
Lazar Carević Famalicao Ativo 137 / 131 40% 1 15.04.2027 -
Fredrik Aursnes Benfica Ativo 147 / 150 40% 4 14.04.2027 -
Agustín Palavecino Cruz Azul Ativo 134 / 141 40% 2 14.04.2027 -
Kristoffer Lund Birmingham Ativo 133 / 130 40% 1 14.04.2027 -
Luke McNally Bristol City Ativo 134 / 135 40% 1 14.04.2027 -
Francisco Moura Lusitânia Lourosa Ativo 144 / 140 40% 4 12.04.2027 -
Kyle Walker-Peters West Ham United Ativo 133 / 134 40% 1 12.04.2027 -
Harry Clarke Preston Ativo 130 / 130 40% 1 12.04.2027 -
Gonçalo Inácio Sporting CP Ativo 147 / 153 40% 11 09.04.2027 -
Luís Esteves Atlas Ativo 132 / 126 40% 6 09.04.2027 -
Jordan Holsgrove Estoril Praia Ativo 131 / 127 40% 8 07.04.2027 -
Renato Sanches AVS Ativo 136 / 126 40% 5 07.04.2027 -
Robin Roefs Sunderland Ativo 147 / 148 40% 1 06.04.2027 -
Jan Bednarek Porto Ativo 146 / 140 40% 9 05.04.2027 -
Hwang In-Beom Porto Ativo 144 / 145 40% 14 05.04.2027 -
João Palhinha Benfica Ativo 154 / 145 40% 13 04.04.2027 -
Javi Sánchez Arouca Ativo 128 / 132 40% 4 02.04.2027 -
Víctor Gómez Braga Ativo 141 / 133 40% 17 01.04.2027 -
Alejandro Zendejas Club America Ativo 142 / 139 40% 2 01.04.2027 -
Alberto Costa Porto Ativo 142 / 148 40% 14 28.03.2027 -
Alan Varela Porto Ativo 148 / 148 40% 6 26.03.2027 -
Pablo Rosario Porto Ativo 144 / 132 40% 5 26.03.2027 -
Mario Dorgeles Braga Ativo 140 / 137 40% 5 26.03.2027 -
Santi García Gil Vicente Ativo 137 / 129 40% 9 22.03.2027 -
Samu Vitoria Guimaraes Ativo 128 / 123 40% 2 22.03.2027 -
Eduardo Quaresma Sporting CP Ativo 141 / 142 40% 6 20.03.2027 -
Luis Quintero Torreense Ativo 131 / 125 40% 2 19.03.2027 -
Luís Guilherme Sporting CP Ativo 128 / 131 40% 5 17.03.2027 -
Paulo Moreira Farense Ativo 129 / 128 40% 4 15.03.2027 -
Valery Académico de Viseu Ativo 127 / 116 40% 1 14.03.2027 -
Derensili Sanches Fernandes Huddersfield Town Ativo 122 / 121 40% 1 12.03.2027 -
Rodrigo Pinheiro Famalicao Ativo 122 / 130 40% 11 11.03.2027 -
Leon Goretzka Aston Villa Ativo 153 / 153 40% 2 11.03.2027 -
João Simões Sporting CP Ativo 130 / 137 40% 7 11.03.2027 -
Gonzalo Piovi Cruz Azul Ativo 139 / 124 40% 1 09.03.2027 -
Sergi Altimira Sporting CP Ativo 135 / 145 40% 6 08.03.2027 -
Sikou Niakaté Braga Ativo 137 / 141 40% 7 07.03.2027 -
Rafik Guitane Estoril Praia Ativo 137 / 135 40% 1 07.03.2027 -
Max Bird Birmingham Ativo 132 / 132 40% 5 05.03.2027 -
Diego Lainez Tigres Ativo 129 / 126 40% 3 03.03.2027 -
Pepê Porto Ativo 149 / 138 40% 4 02.03.2027 -
Gerardo Arteaga Monterrey Ativo 137 / 128 40% 2 01.03.2027 -
William Gomes Porto Ativo 139 / 141 40% 3 26.02.2027 -
Erick Sánchez OGC Nice Ativo 137 / 144 40% 1 26.02.2027 -
Juninho Pumas UNAM Ativo 127 / 131 40% 1 25.02.2027 -
Dodi Lukébakio Benfica Ativo 144 / 143 40% 2 19.02.2027 -
Ozziel Herrera Tigres Ativo 123 / 124 40% 2 16.02.2027 -
Ross McCrorie Bristol City Ativo 132 / 131 40% 1 16.02.2027 -
Gustaf Lagerbielke Braga Ativo 136 / 141 40% 1 16.02.2027 -
Joaquim Tigres Ativo 131 / 124 40% 1 14.02.2027 -
Florentino Luís Ipswich Town Ativo 140 / 142 40% 1 08.02.2027 -
Victor Froholdt Porto Ativo 149 / 153 40% 7 05.02.2027 -
Gabri Martínez Braga Ativo 135 / 126 40% 1 04.02.2027 -
Nicolás Fernández Mercau Shakhtar Ativo 138 / 137 40% 3 03.02.2027 -
Maxime Dominguez Maritimo Ativo 129 / 126 40% 1 01.02.2027 -
José Hurtado Bragantino Ativo 123 / 123 40% 2 29.01.2027 -
Danilo Botafogo Ativo 141 / 141 40% 1 27.01.2027 -
Matheuzinho Corinthians Ativo 133 / 134 40% 5 26.01.2027 -
Caio Alexandre Bahia Ativo 133 / 132 40% 5 25.01.2027 -
Matheus Bidu Corinthians Ativo 135 / 131 40% 4 25.01.2027 -
Christian Krasnodar Ativo 132 / 135 40% 6 23.01.2027 -
Lukáš Červ Viktoria Plzen Ativo 134 / 138 40% 2 20.01.2027 -
Jesús Orozco Chiquete Cruz Azul Ativo 135 / 125 40% 4 16.01.2027 -
Juan Pablo Freytes Fluminense Ativo 132 / 124 40% 2 08.01.2027 -
Lucas Piton Vasco da Gama Ativo 133 / 126 40% 3 08.01.2027 -
Félix Lemaréchal Club Brugge Ativo 130 / 140 40% 1 06.01.2027 -
Gabriel Veron Porto Ativo 125 / 120 40% 2 26.12.2026 -
Eric Ramires Bragantino Ativo 126 / 130 40% 1 26.12.2026 -
Marquinhos Spartak Moscow Ativo 128 / 134 40% 1 14.12.2026 -
Léo Ortiz Flamengo Ativo 139 / 142 40% 2 23.11.2026 -
Vitor Carvalho Braga Ativo 133 / 136 40% 1 21.11.2026 -
Mauro Arambarri River Plate Ativo 157 / 155 40% 2 09.11.2026 -
Lucas Paquetá Flamengo Ativo 142 / 142 40% 2 31.10.2026 -
Emerson Royal Flamengo Ativo 136 / 129 40% 1 30.10.2026 -
Gustavo Marques Bragantino Ativo 127 / 130 40% 2 24.10.2026 -
William Cruzeiro Ativo 132 / 140 40% 3 15.10.2026 -
Fabrício Bruno Cruzeiro Ativo 138 / 135 40% 2 13.10.2026 -
Jean Lucas Bahia Ativo 134 / 137 40% 1 13.10.2026 -
Matty Cash Aston Villa Ativo 153 / 146 40% 1 10.10.2026 -
Jesús Angulo Tigres Ativo 129 / 128 40% 1 02.10.2026 -
Zeno Debast Sporting CP Ativo 142 / 139 40% 3 30.09.2026 -
Martim Fernandes Porto Ativo 131 / 142 40% 2 28.09.2026 -
Ibrahim Sangaré Nottingham Forest Ativo 148 / 153 40% 1 27.09.2026 -
James Cardona La Equidad Ativo 141 / 138 40% 1 24.09.2026 -
Alexander Bah Benfica Ativo 141 / 134 40% 1 15.09.2026 -
Santiago Ramos Mingo Bahia Ativo 134 / 132 40% 1 12.09.2026 -
Mathias De Amorim Famalicao Ativo 130 / 132 40% 1 07.09.2026 -
Yoan Bonny Inter Ativo 141 / 142 40% 2 18.08.2026 -
Youssef En-Nesyri Al-Ittihad Ativo 134 / 140 40% 1 18.08.2026 -
Gabriel Jesus Barcelona Ativo 150 / 158 40% 4 17.08.2026 -
Kerem Aktürkoğlu Fenerbahce Ativo 140 / 133 40% 1 15.08.2026 -
Ricardo Horta Braga Ativo 153 / 147 40% 1 09.08.2026 -
Dominic Calvert-Lewin Leeds United Ativo 145 / 143 40% 1 05.08.2026 -
Joshua Zirkzee Manchester United Ativo 147 / 136 40% 1 05.08.2026 -
Gonzalo Fulham Ativo 146 / 146 40% 1 04.08.2026 -
Ángel Correa River Plate Ativo 147 / 142 40% 1 04.08.2026 -
Matheus Pereira Cruzeiro Ativo 140 / 137 40% 1 03.08.2026 -
Karim Adeyemi Barcelona Ativo 144 / 154 40% 1 02.08.2026 -
Rodrigo Zalazar Sporting CP Ativo 148 / 143 40% 1 02.08.2026 -